createdAt,value
2018-09-26T00:00:59.562Z,5.65
2018-09-26T00:01:59.466Z,5.61
2018-09-26T00:02:59.351Z,5.64
2018-09-26T00:03:59.252Z,5.62
2018-09-26T00:04:59.139Z,5.62
2018-09-26T00:05:59.040Z,5.61
2018-09-26T00:06:58.929Z,5.59
2018-09-26T00:07:58.832Z,5.66
2018-09-26T00:08:58.716Z,5.71
2018-09-26T00:09:58.617Z,5.68
2018-09-26T00:10:58.507Z,5.83
2018-09-26T00:11:58.407Z,5.72
2018-09-26T00:12:58.298Z,5.75
2018-09-26T00:13:58.194Z,5.71
2018-09-26T00:14:58.083Z,5.62
2018-09-26T00:15:57.984Z,5.64
2018-09-26T00:16:57.873Z,5.61
2018-09-26T00:17:58.071Z,5.57
2018-09-26T00:18:57.672Z,5.51
2018-09-26T00:19:57.561Z,5.51
2018-09-26T00:20:57.461Z,5.46
2018-09-26T00:21:57.349Z,5.38
2018-09-26T00:22:57.251Z,5.36
2018-09-26T00:23:57.138Z,5.41
2018-09-26T00:24:57.038Z,5.38
2018-09-26T00:25:56.927Z,5.39
2018-09-26T00:26:56.828Z,5.47
2018-09-26T00:27:56.719Z,5.39
2018-09-26T00:28:56.617Z,5.39
2018-09-26T00:29:56.505Z,5.39
2018-09-26T00:30:56.405Z,5.29
2018-09-26T00:31:56.295Z,5.35
2018-09-26T00:32:56.194Z,5.32
2018-09-26T00:33:56.094Z,5.30
2018-09-26T00:34:55.981Z,5.30
2018-09-26T00:35:55.904Z,5.25
2018-09-26T00:36:55.771Z,5.30
2018-09-26T00:37:55.970Z,5.26
2018-09-26T00:38:55.559Z,5.25
2018-09-26T00:39:55.459Z,5.20
2018-09-26T00:40:55.349Z,5.25
2018-09-26T00:41:55.248Z,5.28
2018-09-26T00:42:55.137Z,5.26
2018-09-26T00:43:55.039Z,5.21
2018-09-26T00:44:54.925Z,5.29
2018-09-26T00:45:54.825Z,5.28
2018-09-26T00:46:54.715Z,5.21
2018-09-26T00:47:54.614Z,5.26
2018-09-26T00:48:54.503Z,5.25
2018-09-26T00:49:54.403Z,5.26
2018-09-26T00:50:54.303Z,5.26
2018-09-26T00:51:54.191Z,5.25
2018-09-26T00:52:54.091Z,5.26
2018-09-26T00:53:53.983Z,5.20
2018-09-26T00:54:53.883Z,5.26
2018-09-26T00:55:53.769Z,5.23
2018-09-26T00:56:53.668Z,5.26
2018-09-26T00:57:53.558Z,5.25
2018-09-26T00:58:53.459Z,5.12
2018-09-26T00:59:53.347Z,5.20
2018-09-26T01:00:53.246Z,5.14
2018-09-26T01:01:53.137Z,5.15
2018-09-26T01:02:53.035Z,5.25
2018-09-26T01:03:52.924Z,5.21
2018-09-26T01:04:52.825Z,5.21
2018-09-26T01:05:52.714Z,5.20
2018-09-26T01:06:52.613Z,5.26
2018-09-26T01:07:52.505Z,5.26
2018-09-26T01:08:52.417Z,5.23
2018-09-26T01:09:52.303Z,5.18
2018-09-26T01:10:52.190Z,5.26
2018-09-26T01:11:52.090Z,5.38
2018-09-26T01:12:51.979Z,5.21
2018-09-26T01:13:51.891Z,5.26
2018-09-26T01:14:51.768Z,5.29
2018-09-26T01:15:51.669Z,5.25
2018-09-26T01:16:51.559Z,5.28
2018-09-26T01:17:51.456Z,5.28
2018-09-26T01:18:51.345Z,5.28
2018-09-26T01:19:51.248Z,5.20
2018-09-26T01:20:51.133Z,5.20
2018-09-26T01:21:51.033Z,5.18
2018-09-26T01:22:50.922Z,5.20
2018-09-26T01:23:50.822Z,5.14
2018-09-26T01:24:50.709Z,5.15
2018-09-26T01:25:50.611Z,5.18
2018-09-26T01:26:50.499Z,5.11
2018-09-26T01:27:50.400Z,5.12
2018-09-26T01:28:50.335Z,5.17
2018-09-26T01:29:50.187Z,5.20
2018-09-26T01:30:50.088Z,5.18
2018-09-26T01:31:49.978Z,5.14
2018-09-26T01:32:50.118Z,5.17
2018-09-26T01:33:49.766Z,5.15
2018-09-26T01:34:49.666Z,5.10
2018-09-26T01:35:49.555Z,5.17
2018-09-26T01:36:49.455Z,5.07
2018-09-26T01:37:49.342Z,5.17
2018-09-26T01:38:49.243Z,5.12
2018-09-26T01:39:49.131Z,5.17
2018-09-26T01:40:49.032Z,5.17
2018-09-26T01:41:48.920Z,5.17
2018-09-26T01:42:48.819Z,5.10
2018-09-26T01:43:48.709Z,5.17
2018-09-26T01:44:48.611Z,5.17
2018-09-26T01:45:48.496Z,5.25
2018-09-26T01:46:48.397Z,5.23
2018-09-26T01:47:48.287Z,5.18
2018-09-26T01:48:48.186Z,5.28
2018-09-26T01:49:48.076Z,5.28
2018-09-26T01:50:47.975Z,5.26
2018-09-26T01:51:47.864Z,5.32
2018-09-26T01:52:47.764Z,5.35
2018-09-26T01:53:47.652Z,5.35
2018-09-26T01:54:47.589Z,5.38
2018-09-26T01:55:47.440Z,5.46
2018-09-26T01:56:47.342Z,5.51
2018-09-26T01:57:47.230Z,5.47
2018-09-26T01:58:47.130Z,5.62
2018-09-26T01:59:47.031Z,5.64
2018-09-26T02:00:46.919Z,5.71
2018-09-26T02:01:46.819Z,5.59
2018-09-26T02:02:46.956Z,5.61
2018-09-26T02:03:46.606Z,5.62
2018-09-26T02:04:46.495Z,5.59
2018-09-26T02:05:46.396Z,5.65
2018-09-26T02:06:46.286Z,5.69
2018-09-26T02:07:46.184Z,5.76
2018-09-26T02:08:46.073Z,5.69
2018-09-26T02:09:45.973Z,5.68
2018-09-26T02:10:45.861Z,5.66
2018-09-26T02:11:45.774Z,5.65
2018-09-26T02:12:45.650Z,5.72
2018-09-26T02:13:45.551Z,5.73
2018-09-26T02:14:45.438Z,5.68
2018-09-26T02:15:45.338Z,5.59
2018-09-26T02:16:45.227Z,5.64
2018-09-26T02:17:45.128Z,5.61
2018-09-26T02:18:45.016Z,5.61
2018-09-26T02:19:44.919Z,5.46
2018-09-26T02:20:44.808Z,5.64
2018-09-26T02:21:44.706Z,5.65
2018-09-26T02:22:44.843Z,5.56
2018-09-26T02:23:44.518Z,5.62
2018-09-26T02:24:44.383Z,5.65
2018-09-26T02:25:44.283Z,5.59
2018-09-26T02:26:44.172Z,5.62
2018-09-26T02:27:44.071Z,5.50
2018-09-26T02:28:43.974Z,5.56
2018-09-26T02:29:43.860Z,5.51
2018-09-26T02:30:43.767Z,5.51
2018-09-26T02:31:43.652Z,5.54
2018-09-26T02:32:43.567Z,5.43
2018-09-26T02:33:43.437Z,5.46
2018-09-26T02:34:43.338Z,5.51
2018-09-26T02:35:43.226Z,5.46
2018-09-26T02:36:43.126Z,5.47
2018-09-26T02:37:43.015Z,5.41
2018-09-26T02:38:42.916Z,5.44
2018-09-26T02:39:42.802Z,5.47
2018-09-26T02:40:42.703Z,5.43
2018-09-26T02:41:42.595Z,5.39
2018-09-26T02:42:42.741Z,5.47
2018-09-26T02:43:42.379Z,5.32
2018-09-26T02:44:42.280Z,5.43
2018-09-26T02:45:42.169Z,5.38
2018-09-26T02:46:42.069Z,5.41
2018-09-26T02:47:41.957Z,5.46
2018-09-26T02:48:41.857Z,5.33
2018-09-26T02:49:41.748Z,5.29
2018-09-26T02:50:41.647Z,5.18
2018-09-26T02:51:41.535Z,5.26
2018-09-26T02:52:41.436Z,5.21
2018-09-26T02:53:41.337Z,5.23
2018-09-26T02:54:41.224Z,5.26
2018-09-26T02:55:41.144Z,5.21
2018-09-26T02:56:41.012Z,5.18
2018-09-26T02:57:40.915Z,5.14
2018-09-26T02:58:40.802Z,5.15
2018-09-26T02:59:40.702Z,5.12
2018-09-26T03:00:40.589Z,5.05
2018-09-26T03:01:40.491Z,5.07
2018-09-26T03:02:40.379Z,5.02
2018-09-26T03:03:40.280Z,5.05
2018-09-26T03:04:40.170Z,5.08
2018-09-26T03:05:40.068Z,5.02
2018-09-26T03:06:39.956Z,5.00
2018-09-26T03:07:39.859Z,5.08
2018-09-26T03:08:39.744Z,5.10
2018-09-26T03:09:39.644Z,5.02
2018-09-26T03:10:39.534Z,5.05
2018-09-26T03:11:39.433Z,5.02
2018-09-26T03:12:39.323Z,5.08
2018-09-26T03:13:39.225Z,5.04
2018-09-26T03:14:39.111Z,5.15
2018-09-26T03:15:39.011Z,5.04
2018-09-26T03:16:38.902Z,5.07
2018-09-26T03:17:38.851Z,5.17
2018-09-26T03:18:38.689Z,5.14
2018-09-26T03:19:38.588Z,5.17
2018-09-26T03:20:38.476Z,5.15
2018-09-26T03:21:38.377Z,5.08
2018-09-26T03:22:38.279Z,5.12
2018-09-26T03:23:38.165Z,5.11
2018-09-26T03:24:38.055Z,5.12
2018-09-26T03:25:37.953Z,5.20
2018-09-26T03:26:37.853Z,5.15
2018-09-26T03:27:37.743Z,5.18
2018-09-26T03:28:37.644Z,5.08
2018-09-26T03:29:37.532Z,5.14
2018-09-26T03:30:37.431Z,5.05
2018-09-26T03:31:37.321Z,5.07
2018-09-26T03:32:37.222Z,5.08
2018-09-26T03:33:37.127Z,5.04
2018-09-26T03:34:37.009Z,5.07
2018-09-26T03:35:36.897Z,5.07
2018-09-26T03:36:36.798Z,5.04
2018-09-26T03:37:36.703Z,4.99
2018-09-26T03:38:36.598Z,5.12
2018-09-26T03:39:36.474Z,5.05
2018-09-26T03:40:36.374Z,5.10
2018-09-26T03:41:36.262Z,5.08
2018-09-26T03:42:36.164Z,5.08
2018-09-26T03:43:36.052Z,5.15
2018-09-26T03:44:35.952Z,5.04
2018-09-26T03:45:35.841Z,5.10
2018-09-26T03:46:35.740Z,5.17
2018-09-26T03:47:35.882Z,5.15
2018-09-26T03:48:35.533Z,5.15
2018-09-26T03:49:35.417Z,5.28
2018-09-26T03:50:35.318Z,5.29
2018-09-26T03:51:35.206Z,5.25
2018-09-26T03:52:35.107Z,5.26
2018-09-26T03:53:34.994Z,5.30
2018-09-26T03:54:34.894Z,5.32
2018-09-26T03:55:34.795Z,5.18
2018-09-26T03:56:34.685Z,5.26
2018-09-26T03:57:34.884Z,5.28
2018-09-26T03:58:34.472Z,5.43
2018-09-26T03:59:34.372Z,5.44
2018-09-26T04:00:34.261Z,5.35
2018-09-26T04:01:34.162Z,5.47
2018-09-26T04:02:34.049Z,5.46
2018-09-26T04:03:33.950Z,5.43
2018-09-26T04:04:33.838Z,5.50
2018-09-26T04:05:33.742Z,5.50
2018-09-26T04:06:33.628Z,5.56
2018-09-26T04:07:33.528Z,5.51
2018-09-26T04:08:33.418Z,5.51
2018-09-26T04:09:33.321Z,5.53
2018-09-26T04:10:33.204Z,5.50
2018-09-26T04:11:33.105Z,5.50
2018-09-26T04:12:33.003Z,5.48
2018-09-26T04:13:32.893Z,5.47
2018-09-26T04:14:32.794Z,5.53
2018-09-26T04:15:32.693Z,5.62
2018-09-26T04:16:32.582Z,5.64
2018-09-26T04:17:32.722Z,5.56
2018-09-26T04:18:32.371Z,5.59
2018-09-26T04:19:32.259Z,5.59
2018-09-26T04:20:32.233Z,5.59
2018-09-26T04:21:32.049Z,5.53
2018-09-26T04:22:31.952Z,5.59
2018-09-26T04:23:31.836Z,5.53
2018-09-26T04:24:31.737Z,5.53
2018-09-26T04:25:31.630Z,5.62
2018-09-26T04:26:31.638Z,5.51
2018-09-26T04:27:31.492Z,5.53
2018-09-26T04:28:31.313Z,5.50
2018-09-26T04:29:31.203Z,5.61
2018-09-26T04:30:31.184Z,5.65
2018-09-26T04:31:30.996Z,5.66
2018-09-26T04:32:31.247Z,5.69
2018-09-26T04:33:30.871Z,5.68
2018-09-26T04:34:30.681Z,5.66
2018-09-26T04:35:30.582Z,5.62
2018-09-26T04:36:30.468Z,5.59
2018-09-26T04:37:30.370Z,5.59
2018-09-26T04:38:30.279Z,5.59
2018-09-26T04:39:30.159Z,5.65
2018-09-26T04:40:30.046Z,5.69
2018-09-26T04:41:29.946Z,5.59
2018-09-26T04:42:29.835Z,5.69
2018-09-26T04:43:29.754Z,5.72
2018-09-26T04:44:29.624Z,5.68
2018-09-26T04:45:29.526Z,5.68
2018-09-26T04:46:29.414Z,5.68
2018-09-26T04:47:29.315Z,5.72
2018-09-26T04:48:29.213Z,5.69
2018-09-26T04:49:29.102Z,5.62
2018-09-26T04:50:29.014Z,5.75
2018-09-26T04:51:28.890Z,5.69
2018-09-26T04:52:28.792Z,5.73
2018-09-26T04:53:28.680Z,5.75
2018-09-26T04:54:28.579Z,5.71
2018-09-26T04:55:28.468Z,5.79
2018-09-26T04:56:28.368Z,5.75
2018-09-26T04:57:28.255Z,5.80
2018-09-26T04:58:28.156Z,5.69
2018-09-26T04:59:28.045Z,5.73
2018-09-26T05:00:27.945Z,5.79
2018-09-26T05:01:27.834Z,5.89
2018-09-26T05:02:27.733Z,5.84
2018-09-26T05:03:27.633Z,5.91
2018-09-26T05:04:27.522Z,5.94
2018-09-26T05:05:27.423Z,5.87
2018-09-26T05:06:27.310Z,5.87
2018-09-26T05:07:27.210Z,5.83
2018-09-26T05:08:27.199Z,5.90
2018-09-26T05:09:27.001Z,5.87
2018-09-26T05:10:26.890Z,5.97
2018-09-26T05:11:26.788Z,5.91
2018-09-26T05:12:26.678Z,5.90
2018-09-26T05:13:26.578Z,5.86
2018-09-26T05:14:26.480Z,5.91
2018-09-26T05:15:26.366Z,5.91
2018-09-26T05:16:26.266Z,5.91
2018-09-26T05:17:26.154Z,5.87
2018-09-26T05:18:26.058Z,5.93
2018-09-26T05:19:25.942Z,5.94
2018-09-26T05:20:25.844Z,6.01
2018-09-26T05:21:25.734Z,5.94
2018-09-26T05:22:25.883Z,5.94
2018-09-26T05:23:25.522Z,6.05
2018-09-26T05:24:25.420Z,5.99
2018-09-26T05:25:25.321Z,6.16
2018-09-26T05:26:25.218Z,6.12
2018-09-26T05:27:25.111Z,6.17
2018-09-26T05:28:24.998Z,6.11
2018-09-26T05:29:24.898Z,6.22
2018-09-26T05:30:24.813Z,6.26
2018-09-26T05:31:24.689Z,6.27
2018-09-26T05:32:24.577Z,6.35
2018-09-26T05:33:24.476Z,6.30
2018-09-26T05:34:24.376Z,6.36
2018-09-26T05:35:24.266Z,6.42
2018-09-26T05:36:24.167Z,6.46
2018-09-26T05:37:24.053Z,6.52
2018-09-26T05:38:23.953Z,6.48
2018-09-26T05:39:23.844Z,6.56
2018-09-26T05:40:23.743Z,6.64
2018-09-26T05:41:23.644Z,6.62
2018-09-26T05:42:23.781Z,6.69
2018-09-26T05:43:23.432Z,6.70
2018-09-26T05:44:23.320Z,6.75
2018-09-26T05:45:23.221Z,6.82
2018-09-26T05:46:23.122Z,6.87
2018-09-26T05:47:23.008Z,6.92
2018-09-26T05:48:22.909Z,7.03
2018-09-26T05:49:22.798Z,7.00
2018-09-26T05:50:22.699Z,7.05
2018-09-26T05:51:22.587Z,7.14
2018-09-26T05:52:22.487Z,7.38
2018-09-26T05:53:22.414Z,7.48
2018-09-26T05:54:22.277Z,7.56
2018-09-26T05:55:22.176Z,7.39
2018-09-26T05:56:22.066Z,7.40
2018-09-26T05:57:21.965Z,7.53
2018-09-26T05:58:21.867Z,7.51
2018-09-26T05:59:21.759Z,7.66
2018-09-26T06:00:21.655Z,7.60
2018-09-26T06:01:21.555Z,7.61
2018-09-26T06:02:21.693Z,7.58
2018-09-26T06:03:21.343Z,7.79
2018-09-26T06:04:21.233Z,7.79
2018-09-26T06:05:21.168Z,7.87
2018-09-26T06:06:21.033Z,7.85
2018-09-26T06:07:20.920Z,7.97
2018-09-26T06:08:20.820Z,7.95
2018-09-26T06:09:20.722Z,8.06
2018-09-26T06:10:20.609Z,8.06
2018-09-26T06:11:20.517Z,8.06
2018-09-26T06:12:20.411Z,8.20
2018-09-26T06:13:20.299Z,8.24
2018-09-26T06:14:20.199Z,8.26
2018-09-26T06:15:20.101Z,8.26
2018-09-26T06:16:19.991Z,8.18
2018-09-26T06:17:19.888Z,8.28
2018-09-26T06:18:19.789Z,8.33
2018-09-26T06:19:19.677Z,8.46
2018-09-26T06:20:19.582Z,8.46
2018-09-26T06:21:19.478Z,8.44
2018-09-26T06:22:19.369Z,8.48
2018-09-26T06:23:19.268Z,8.49
2018-09-26T06:24:19.170Z,8.48
2018-09-26T06:25:19.055Z,8.58
2018-09-26T06:26:18.959Z,8.63
2018-09-26T06:27:18.857Z,8.71
2018-09-26T06:28:18.745Z,8.74
2018-09-26T06:29:18.648Z,8.85
2018-09-26T06:30:18.546Z,8.91
2018-09-26T06:31:18.436Z,8.92
2018-09-26T06:32:18.335Z,8.99
2018-09-26T06:33:18.234Z,9.11
2018-09-26T06:34:18.134Z,9.13
2018-09-26T06:35:18.025Z,9.26
2018-09-26T06:36:17.925Z,9.31
2018-09-26T06:37:18.126Z,9.37
2018-09-26T06:38:17.725Z,9.36
2018-09-26T06:39:17.612Z,9.34
2018-09-26T06:40:17.540Z,9.37
2018-09-26T06:41:17.419Z,9.34
2018-09-26T06:42:17.316Z,9.37
2018-09-26T06:43:17.204Z,9.31
2018-09-26T06:44:17.104Z,9.32
2018-09-26T06:45:17.004Z,9.26
2018-09-26T06:46:16.893Z,9.22
2018-09-26T06:47:16.792Z,9.28
2018-09-26T06:48:16.693Z,9.29
2018-09-26T06:49:16.594Z,9.28
2018-09-26T06:50:16.493Z,9.32
2018-09-26T06:51:16.383Z,9.36
2018-09-26T06:52:16.284Z,9.41
2018-09-26T06:53:16.184Z,9.39
2018-09-26T06:54:16.073Z,9.36
2018-09-26T06:55:15.973Z,9.40
2018-09-26T06:56:15.872Z,9.47
2018-09-26T06:57:15.774Z,9.58
2018-09-26T06:58:15.673Z,9.58
2018-09-26T06:59:15.563Z,9.68
2018-09-26T07:00:15.536Z,9.72
2018-09-26T07:01:15.364Z,9.83
2018-09-26T07:02:15.253Z,9.82
2018-09-26T07:03:15.200Z,9.98
2018-09-26T07:04:15.052Z,10.09
2018-09-26T07:05:14.953Z,10.04
2018-09-26T07:06:14.867Z,10.26
2018-09-26T07:07:14.742Z,10.22
2018-09-26T07:08:14.642Z,10.20
2018-09-26T07:09:14.544Z,10.26
2018-09-26T07:10:14.444Z,10.31
2018-09-26T07:11:14.332Z,10.41
2018-09-26T07:12:14.266Z,10.37
2018-09-26T07:13:14.132Z,10.46
2018-09-26T07:14:14.034Z,10.54
2018-09-26T07:15:13.934Z,10.57
2018-09-26T07:16:13.822Z,10.69
2018-09-26T07:17:13.724Z,10.74
2018-09-26T07:18:13.623Z,10.72
2018-09-26T07:19:13.524Z,10.75
2018-09-26T07:20:13.424Z,10.78
2018-09-26T07:21:13.312Z,10.87
2018-09-26T07:22:13.212Z,10.93
2018-09-26T07:23:13.113Z,11.07
2018-09-26T07:24:13.014Z,11.17
2018-09-26T07:25:12.914Z,11.05
2018-09-26T07:26:12.814Z,11.08
2018-09-26T07:27:12.703Z,11.08
2018-09-26T07:28:12.611Z,11.17
2018-09-26T07:29:12.505Z,11.30
2018-09-26T07:30:12.409Z,11.27
2018-09-26T07:31:12.305Z,11.41
2018-09-26T07:32:12.221Z,11.36
2018-09-26T07:33:12.094Z,11.48
2018-09-26T07:34:11.996Z,11.62
2018-09-26T07:35:11.895Z,11.59
2018-09-26T07:36:11.796Z,11.70
2018-09-26T07:37:11.696Z,11.75
2018-09-26T07:38:11.599Z,11.81
2018-09-26T07:39:11.485Z,11.88
2018-09-26T07:40:11.386Z,12.00
2018-09-26T07:41:11.286Z,12.00
2018-09-26T07:42:11.188Z,12.13
2018-09-26T07:43:11.088Z,12.24
2018-09-26T07:44:10.988Z,12.29
2018-09-26T07:45:10.899Z,12.36
2018-09-26T07:46:10.779Z,12.36
2018-09-26T07:47:10.677Z,12.43
2018-09-26T07:48:10.577Z,12.32
2018-09-26T07:49:10.477Z,12.37
2018-09-26T07:50:10.378Z,12.35
2018-09-26T07:51:10.279Z,12.27
2018-09-26T07:52:10.180Z,12.20
2018-09-26T07:53:10.153Z,12.09
2018-09-26T07:54:09.981Z,12.18
2018-09-26T07:55:09.870Z,12.20
2018-09-26T07:56:09.770Z,12.40
2018-09-26T07:57:09.970Z,12.49
2018-09-26T07:58:09.574Z,12.61
2018-09-26T07:59:09.519Z,12.75
2018-09-26T08:00:09.382Z,12.80
2018-09-26T08:01:09.273Z,12.87
2018-09-26T08:02:09.174Z,12.91
2018-09-26T08:03:09.077Z,12.94
2018-09-26T08:04:08.975Z,12.93
2018-09-26T08:05:08.863Z,12.94
2018-09-26T08:06:08.763Z,12.91
2018-09-26T08:07:08.664Z,12.91
2018-09-26T08:08:08.564Z,12.75
2018-09-26T08:09:08.464Z,12.67
2018-09-26T08:10:08.368Z,12.60
2018-09-26T08:11:08.269Z,12.53
2018-09-26T08:12:08.167Z,12.36
2018-09-26T08:13:08.069Z,12.28
2018-09-26T08:14:07.969Z,12.20
2018-09-26T08:15:07.869Z,12.12
2018-09-26T08:16:07.762Z,12.06
2018-09-26T08:17:07.657Z,12.10
2018-09-26T08:18:07.617Z,12.13
2018-09-26T08:19:07.459Z,12.20
2018-09-26T08:20:07.359Z,12.20
2018-09-26T08:21:07.259Z,12.24
2018-09-26T08:22:07.160Z,12.24
2018-09-26T08:23:07.060Z,12.32
2018-09-26T08:24:07.100Z,12.46
2018-09-26T08:25:06.861Z,12.45
2018-09-26T08:26:06.750Z,12.68
2018-09-26T08:27:06.650Z,12.72
2018-09-26T08:28:06.553Z,12.73
2018-09-26T08:29:06.452Z,12.86
2018-09-26T08:30:06.352Z,12.97
2018-09-26T08:31:06.251Z,12.95
2018-09-26T08:32:06.152Z,13.09
2018-09-26T08:33:06.052Z,13.09
2018-09-26T08:34:05.953Z,13.27
2018-09-26T08:35:05.849Z,13.44
2018-09-26T08:36:05.742Z,13.47
2018-09-26T08:37:05.644Z,13.53
2018-09-26T08:38:05.543Z,13.70
2018-09-26T08:39:05.444Z,13.74
2018-09-26T08:40:05.345Z,13.90
2018-09-26T08:41:05.245Z,14.08
2018-09-26T08:42:05.145Z,14.30
2018-09-26T08:43:05.046Z,14.43
2018-09-26T08:44:05.020Z,14.60
2018-09-26T08:45:04.835Z,14.62
2018-09-26T08:46:04.735Z,14.81
2018-09-26T08:47:04.636Z,14.97
2018-09-26T08:48:04.535Z,14.92
2018-09-26T08:49:04.439Z,14.99
2018-09-26T08:50:04.337Z,15.02
2018-09-26T08:51:04.237Z,15.00
2018-09-26T08:52:04.139Z,14.82
2018-09-26T08:53:04.038Z,15.02
2018-09-26T08:54:03.939Z,15.02
2018-09-26T08:55:03.839Z,15.25
2018-09-26T08:56:03.740Z,15.40
2018-09-26T08:57:03.942Z,15.46
2018-09-26T08:58:03.542Z,15.49
2018-09-26T08:59:03.442Z,15.54
2018-09-26T09:00:03.344Z,15.54
2018-09-26T09:01:03.244Z,15.42
2018-09-26T09:02:03.145Z,15.40
2018-09-26T09:03:03.044Z,15.58
2018-09-26T09:04:02.945Z,15.58
2018-09-26T09:05:02.845Z,15.67
2018-09-26T09:06:02.755Z,15.73
2018-09-26T09:07:02.649Z,15.72
2018-09-26T09:08:02.549Z,15.70
2018-09-26T09:09:02.450Z,15.76
2018-09-26T09:10:02.362Z,15.77
2018-09-26T09:11:02.263Z,15.88
2018-09-26T09:12:02.163Z,16.04
2018-09-26T09:13:02.062Z,15.94
2018-09-26T09:14:01.964Z,16.04
2018-09-26T09:15:01.865Z,16.04
2018-09-26T09:16:01.766Z,15.91
2018-09-26T09:17:01.664Z,15.95
2018-09-26T09:18:01.569Z,15.95
2018-09-26T09:19:01.467Z,15.90
2018-09-26T09:20:01.367Z,15.86
2018-09-26T09:21:01.280Z,15.83
2018-09-26T09:22:01.180Z,15.73
2018-09-26T09:23:01.081Z,15.75
2018-09-26T09:24:00.982Z,15.68
2018-09-26T09:25:00.881Z,15.77
2018-09-26T09:26:00.782Z,15.77
2018-09-26T09:27:00.712Z,15.82
2018-09-26T09:28:00.583Z,15.88
2018-09-26T09:29:00.483Z,15.88
2018-09-26T09:30:00.386Z,15.88
2018-09-26T09:31:00.289Z,16.04
2018-09-26T09:32:00.202Z,15.90
2018-09-26T09:33:00.099Z,15.92
2018-09-26T09:34:00.000Z,16.00
2018-09-26T09:34:59.901Z,16.09
2018-09-26T09:35:59.801Z,16.21
2018-09-26T09:36:59.702Z,16.10
2018-09-26T09:37:59.606Z,15.98
2018-09-26T09:38:59.509Z,16.09
2018-09-26T09:39:59.404Z,16.10
2018-09-26T09:40:59.315Z,16.15
2018-09-26T09:41:59.216Z,16.21
2018-09-26T09:42:59.118Z,16.29
2018-09-26T09:43:59.071Z,16.24
2018-09-26T09:44:58.918Z,16.28
2018-09-26T09:45:58.819Z,16.31
2018-09-26T09:46:58.719Z,16.17
2018-09-26T09:47:58.635Z,16.28
2018-09-26T09:48:58.521Z,16.24
2018-09-26T09:49:58.434Z,16.23
2018-09-26T09:50:58.334Z,16.20
2018-09-26T09:51:58.236Z,16.01
2018-09-26T09:52:58.136Z,15.84
2018-09-26T09:53:58.037Z,15.82
2018-09-26T09:54:57.937Z,15.92
2018-09-26T09:55:57.838Z,15.86
2018-09-26T09:56:57.988Z,16.04
2018-09-26T09:57:57.639Z,16.00
2018-09-26T09:58:57.540Z,16.17
2018-09-26T09:59:57.451Z,16.26
2018-09-26T10:00:57.352Z,16.31
2018-09-26T10:01:57.267Z,16.21
2018-09-26T10:02:57.252Z,16.29
2018-09-26T10:03:57.068Z,16.29
2018-09-26T10:04:56.955Z,16.17
2018-09-26T10:05:56.855Z,16.26
2018-09-26T10:06:56.755Z,16.24
2018-09-26T10:07:56.656Z,16.29
2018-09-26T10:08:56.645Z,16.39
2018-09-26T10:09:56.458Z,16.39
2018-09-26T10:10:56.360Z,16.38
2018-09-26T10:11:56.272Z,16.43
2018-09-26T10:12:56.173Z,16.56
2018-09-26T10:13:56.072Z,16.57
2018-09-26T10:14:55.974Z,16.49
2018-09-26T10:15:55.874Z,16.39
2018-09-26T10:16:55.774Z,16.60
2018-09-26T10:17:55.675Z,16.56
2018-09-26T10:18:55.585Z,16.75
2018-09-26T10:19:55.478Z,16.68
2018-09-26T10:20:55.377Z,16.84
2018-09-26T10:21:55.289Z,16.68
2018-09-26T10:22:55.189Z,16.83
2018-09-26T10:23:55.090Z,16.72
2018-09-26T10:24:54.990Z,16.75
2018-09-26T10:25:54.891Z,16.75
2018-09-26T10:26:54.792Z,16.84
2018-09-26T10:27:54.692Z,16.90
2018-09-26T10:28:54.593Z,16.96
2018-09-26T10:29:54.494Z,16.93
2018-09-26T10:30:54.395Z,16.94
2018-09-26T10:31:54.307Z,17.02
2018-09-26T10:32:54.209Z,17.19
2018-09-26T10:33:54.110Z,16.97
2018-09-26T10:34:54.089Z,17.05
